Time;durP1;ratioP1;P1;durP2;ratioP2;P2;SDS_P1;SDS_P2;PMS_P1;PMS_P2;Temp;Humidity;BMP_temperature;BMP_pressure;BME280_temperature;BME280_humidity;BME280_pressure;Samples;Min_cycle;Max_cycle;Signal;HPM_P1;HPM_P2
2023/04/09 00:01:18;;;;;;;;;23.50;23.50;;;;;;;;5043856;28;50145;-78
2023/04/09 00:03:43;;;;;;;;;24.25;20.50;;;;;;;;5049326;28;51330;-77
2023/04/09 00:06:10;;;;;;;;;28.75;24.25;;;;;;;;5048774;28;49846;-77
2023/04/09 00:08:35;;;;;;;;;37.25;27.25;;;;;;;;5047247;28;49740;-77
2023/04/09 00:11:00;;;;;;;;;36.00;26.50;;;;;;;;5055555;28;49672;-78
2023/04/09 00:13:25;;;;;;;;;26.25;24.50;;;;;;;;5068008;28;50189;-77
2023/04/09 00:15:50;;;;;;;;;31.00;29.00;;;;;;;;5048494;28;50183;-78
2023/04/09 00:18:16;;;;;;;;;30.25;25.75;;;;;;;;5048475;28;49909;-76
2023/04/09 00:20:42;;;;;;;;;31.00;27.00;;;;;;;;5054729;28;49950;-76
2023/04/09 00:23:08;;;;;;;;;33.75;27.25;;;;;;;;5042940;28;51055;-76
2023/04/09 00:25:33;;;;;;;;;30.50;26.00;;;;;;;;5048175;28;50137;-76
2023/04/09 00:27:58;;;;;;;;;30.75;27.00;;;;;;;;5030503;28;49736;-76
2023/04/09 00:30:23;;;;;;;;;33.75;29.00;;;;;;;;5048857;28;50034;-77
2023/04/09 00:32:49;;;;;;;;;28.75;26.00;;;;;;;;5049446;28;50635;-77
2023/04/09 00:35:16;;;;;;;;;29.50;29.50;;;;;;;;5048698;28;49637;-76
2023/04/09 00:37:41;;;;;;;;;33.25;29.00;;;;;;;;5055493;28;49742;-76
2023/04/09 00:40:07;;;;;;;;;29.75;26.75;;;;;;;;5048471;28;49730;-76
2023/04/09 00:42:33;;;;;;;;;26.00;26.00;;;;;;;;5061124;28;50835;-76
2023/04/09 00:44:58;;;;;;;;;36.75;30.25;;;;;;;;5064138;28;50050;-77
2023/04/09 00:47:24;;;;;;;;;27.50;26.75;;;;;;;;5068026;27;50377;-77
2023/04/09 00:49:49;;;;;;;;;28.75;28.50;;;;;;;;5069522;28;50118;-76
2023/04/09 00:52:14;;;;;;;;;34.50;31.75;;;;;;;;5067837;28;50098;-76
2023/04/09 00:54:40;;;;;;;;;36.75;32.00;;;;;;;;5068224;28;49656;-76
2023/04/09 00:57:05;;;;;;;;;34.75;33.75;;;;;;;;5068401;28;49831;-76
2023/04/09 00:59:30;;;;;;;;;34.50;31.00;;;;;;;;5068992;28;49711;-76
2023/04/09 01:01:55;;;;;;;;;41.25;35.75;;;;;;;;5068083;28;49780;-76
2023/04/09 01:04:21;;;;;;;;;34.75;33.50;;;;;;;;5080317;27;49741;-76
2023/04/09 01:07:08;;;;;;;;;38.75;35.25;;;;;;;;5068125;28;49686;-75
2023/04/09 01:09:35;;;;;;;;;37.00;32.50;;;;;;;;5062989;28;50146;-76
2023/04/09 01:12:20;;;;;;;;;33.00;29.50;;;;;;;;5067976;28;50706;-79
2023/04/09 01:14:45;;;;;;;;;32.75;32.25;;;;;;;;5079051;27;49883;-78
2023/04/09 01:17:15;;;;;;;;;38.20;37.20;;;;;;;;5068359;28;49635;-77
2023/04/09 01:19:50;;;;;;;;;30.00;28.25;;;;;;;;5066521;27;49778;-78
2023/04/09 01:22:23;;;;;;;;;32.25;27.75;;;;;;;;5068578;28;50173;-78
2023/04/09 01:24:51;;;;;;;;;34.25;29.25;;;;;;;;5071666;28;50318;-78
2023/04/09 01:27:17;;;;;;;;;36.50;34.75;;;;;;;;5071473;28;49880;-77
2023/04/09 01:29:46;;;;;;;;;41.50;34.50;;;;;;;;5071501;28;50296;-77
2023/04/09 01:32:12;;;;;;;;;36.25;32.25;;;;;;;;5071175;28;49836;-78
2023/04/09 01:34:38;;;;;;;;;38.75;36.25;;;;;;;;5052911;28;50012;-78
2023/04/09 01:37:03;;;;;;;;;37.75;35.75;;;;;;;;5071468;28;49865;-77
2023/04/09 01:39:29;;;;;;;;;34.00;33.00;;;;;;;;5071417;28;49940;-78
2023/04/09 01:41:55;;;;;;;;;35.00;32.00;;;;;;;;5071046;28;49780;-77
2023/04/09 01:44:21;;;;;;;;;39.25;37.00;;;;;;;;5071095;28;50334;-77
2023/04/09 01:46:47;;;;;;;;;46.75;36.75;;;;;;;;5071170;28;49762;-77
2023/04/09 01:49:13;;;;;;;;;41.75;36.50;;;;;;;;5070971;28;49810;-77
2023/04/09 01:51:39;;;;;;;;;40.50;37.00;;;;;;;;5070879;28;50892;-78
2023/04/09 01:54:04;;;;;;;;;45.25;38.25;;;;;;;;5070432;28;49776;-78
2023/04/09 01:56:47;;;;;;;;;34.25;32.25;;;;;;;;5071123;28;49620;-78
2023/04/09 01:59:13;;;;;;;;;42.00;36.00;;;;;;;;5071063;28;49794;-77
2023/04/09 02:01:45;;;;;;;;;39.50;37.00;;;;;;;;5071969;28;50634;-78
2023/04/09 02:04:25;;;;;;;;;41.75;37.50;;;;;;;;5070490;28;50117;-75
2023/04/09 02:06:54;;;;;;;;;48.25;39.50;;;;;;;;5070004;28;49947;-78
2023/04/09 02:09:20;;;;;;;;;36.25;34.50;;;;;;;;5052932;28;49679;-78
2023/04/09 02:11:46;;;;;;;;;51.25;38.25;;;;;;;;5070465;28;50714;-78
2023/04/09 02:14:12;;;;;;;;;44.00;37.50;;;;;;;;5070567;28;49774;-78
2023/04/09 02:16:38;;;;;;;;;39.25;33.50;;;;;;;;5070432;28;49776;-78
2023/04/09 02:19:04;;;;;;;;;42.00;37.75;;;;;;;;5070552;28;50182;-78
2023/04/09 02:21:30;;;;;;;;;46.25;37.25;;;;;;;;5070174;28;50377;-76
2023/04/09 02:23:55;;;;;;;;;42.25;35.50;;;;;;;;5070565;28;50146;-76
2023/04/09 02:26:21;;;;;;;;;44.00;37.00;;;;;;;;5069747;28;49679;-76
2023/04/09 02:28:46;;;;;;;;;46.00;39.00;;;;;;;;5070585;28;50020;-76
2023/04/09 02:31:11;;;;;;;;;44.75;38.50;;;;;;;;5070445;28;50382;-76
2023/04/09 02:33:37;;;;;;;;;44.75;38.00;;;;;;;;5069336;28;50281;-76
2023/04/09 02:36:02;;;;;;;;;43.25;37.00;;;;;;;;5070307;28;49723;-76
2023/04/09 02:38:27;;;;;;;;;47.25;40.50;;;;;;;;5071244;28;50010;-76
2023/04/09 02:40:52;;;;;;;;;40.25;35.50;;;;;;;;5069908;28;50158;-76
2023/04/09 02:43:17;;;;;;;;;50.50;39.75;;;;;;;;5057128;28;49694;-76
2023/04/09 02:45:43;;;;;;;;;46.25;42.00;;;;;;;;5050082;28;49721;-76
2023/04/09 02:48:08;;;;;;;;;46.00;40.50;;;;;;;;5049865;28;50033;-76
2023/04/09 02:50:33;;;;;;;;;45.50;35.75;;;;;;;;5049619;28;51647;-77
2023/04/09 02:52:58;;;;;;;;;52.50;43.00;;;;;;;;5051130;28;49971;-76
2023/04/09 02:55:23;;;;;;;;;44.25;39.25;;;;;;;;5049479;28;49944;-76
2023/04/09 02:57:49;;;;;;;;;49.50;40.25;;;;;;;;5050023;28;49736;-75
2023/04/09 03:00:14;;;;;;;;;44.50;39.50;;;;;;;;5048137;28;50719;-76
2023/04/09 03:02:39;;;;;;;;;44.25;39.00;;;;;;;;5049496;28;49965;-76
2023/04/09 03:05:05;;;;;;;;;47.25;37.75;;;;;;;;5049687;28;49782;-76
2023/04/09 03:07:30;;;;;;;;;45.25;40.00;;;;;;;;5032129;28;49921;-76
2023/04/09 03:09:55;;;;;;;;;44.75;38.75;;;;;;;;5049488;28;50781;-76
2023/04/09 03:12:21;;;;;;;;;50.50;42.00;;;;;;;;5048204;28;49754;-76
2023/04/09 03:14:46;;;;;;;;;47.75;41.50;;;;;;;;5053626;28;49748;-76
2023/04/09 03:17:11;;;;;;;;;43.75;39.75;;;;;;;;5049740;28;50024;-76
2023/04/09 03:19:36;;;;;;;;;53.00;43.50;;;;;;;;5049384;28;50054;-76
2023/04/09 03:22:01;;;;;;;;;46.00;40.50;;;;;;;;5045043;28;49980;-76
2023/04/09 03:24:27;;;;;;;;;44.75;38.25;;;;;;;;5049298;28;49792;-76
2023/04/09 03:26:52;;;;;;;;;50.75;41.00;;;;;;;;5049290;28;49987;-76
2023/04/09 03:29:18;;;;;;;;;50.25;38.00;;;;;;;;5050231;28;49814;-76
2023/04/09 03:31:43;;;;;;;;;49.50;39.25;;;;;;;;5048916;28;49753;-76
2023/04/09 03:34:08;;;;;;;;;49.50;42.00;;;;;;;;5049331;28;49653;-77
2023/04/09 03:36:33;;;;;;;;;44.75;41.50;;;;;;;;5049364;28;49701;-76
2023/04/09 03:38:59;;;;;;;;;47.75;41.00;;;;;;;;5049195;28;49891;-76
2023/04/09 03:41:25;;;;;;;;;46.50;42.25;;;;;;;;5052382;28;49748;-76
2023/04/09 03:43:50;;;;;;;;;58.75;46.50;;;;;;;;5069275;28;49811;-76
2023/04/09 03:46:15;;;;;;;;;52.75;43.00;;;;;;;;5069540;28;50024;-77
2023/04/09 03:48:41;;;;;;;;;43.25;39.50;;;;;;;;5068324;28;50840;-77
2023/04/09 03:51:06;;;;;;;;;50.50;41.00;;;;;;;;5068916;28;49794;-77
2023/04/09 03:53:31;;;;;;;;;47.75;41.75;;;;;;;;5068679;28;49635;-77
2023/04/09 03:55:56;;;;;;;;;49.00;42.25;;;;;;;;5051334;28;49786;-77
2023/04/09 03:58:22;;;;;;;;;52.50;43.00;;;;;;;;5068820;28;50757;-76
2023/04/09 04:00:47;;;;;;;;;47.75;41.00;;;;;;;;5068606;28;49751;-76
2023/04/09 04:03:14;;;;;;;;;48.25;41.75;;;;;;;;5069748;28;50074;-76
2023/04/09 04:05:40;;;;;;;;;51.00;41.00;;;;;;;;5069153;28;50052;-77
2023/04/09 04:08:05;;;;;;;;;48.50;40.50;;;;;;;;5068708;28;50688;-75
2023/04/09 04:10:32;;;;;;;;;52.00;45.50;;;;;;;;5052072;28;49724;-75
2023/04/09 04:12:57;;;;;;;;;49.75;41.00;;;;;;;;5069579;28;49788;-76
2023/04/09 04:15:22;;;;;;;;;53.50;41.50;;;;;;;;5070038;28;50094;-76
2023/04/09 04:17:47;;;;;;;;;46.25;40.75;;;;;;;;5068938;28;52335;-76
2023/04/09 04:20:13;;;;;;;;;56.75;43.00;;;;;;;;5068616;28;50014;-76
2023/04/09 04:22:38;;;;;;;;;56.00;45.00;;;;;;;;5070056;28;49913;-76
2023/04/09 04:25:03;;;;;;;;;49.40;43.40;;;;;;;;5064938;28;49742;-76
2023/04/09 04:27:29;;;;;;;;;54.25;42.50;;;;;;;;5068498;28;51120;-77
2023/04/09 04:29:56;;;;;;;;;52.00;39.50;;;;;;;;5049943;28;50141;-76
2023/04/09 04:32:21;;;;;;;;;53.75;44.00;;;;;;;;5068787;28;50197;-76
2023/04/09 04:34:49;;;;;;;;;50.50;41.25;;;;;;;;5063684;28;49687;-76
2023/04/09 04:37:14;;;;;;;;;51.25;41.75;;;;;;;;5068445;28;52370;-77
2023/04/09 04:39:40;;;;;;;;;45.50;40.75;;;;;;;;5070032;28;50120;-76
2023/04/09 04:42:05;;;;;;;;;56.75;47.50;;;;;;;;5064445;28;49780;-76
2023/04/09 04:44:30;;;;;;;;;56.25;38.75;;;;;;;;5048193;28;50074;-76
2023/04/09 04:46:55;;;;;;;;;49.00;41.25;;;;;;;;5029989;28;50069;-77
2023/04/09 04:49:20;;;;;;;;;56.75;45.00;;;;;;;;5054380;28;49783;-77
2023/04/09 04:51:45;;;;;;;;;45.00;39.50;;;;;;;;5055780;28;50040;-77
2023/04/09 04:54:11;;;;;;;;;55.00;42.00;;;;;;;;5061799;28;49839;-77
2023/04/09 04:56:36;;;;;;;;;42.75;37.50;;;;;;;;5050756;28;50997;-76
2023/04/09 04:59:01;;;;;;;;;42.00;38.50;;;;;;;;5052710;28;49766;-76
2023/04/09 05:01:26;;;;;;;;;48.25;42.25;;;;;;;;5053785;28;49770;-76
2023/04/09 05:03:52;;;;;;;;;47.50;42.50;;;;;;;;5051644;28;50020;-76
2023/04/09 05:06:17;;;;;;;;;47.25;39.00;;;;;;;;5051421;28;50517;-76
2023/04/09 05:08:42;;;;;;;;;52.75;41.75;;;;;;;;5062004;28;49772;-76
2023/04/09 05:11:10;;;;;;;;;53.25;41.75;;;;;;;;5051592;28;49739;-76
2023/04/09 05:13:35;;;;;;;;;50.25;41.75;;;;;;;;5049635;28;49721;-76
2023/04/09 05:16:01;;;;;;;;;58.25;45.25;;;;;;;;5044789;28;49862;-75
2023/04/09 05:18:26;;;;;;;;;50.25;43.25;;;;;;;;5050743;28;49664;-75
2023/04/09 05:20:51;;;;;;;;;45.75;38.75;;;;;;;;5051691;28;50082;-76
2023/04/09 05:23:16;;;;;;;;;56.75;45.75;;;;;;;;5051274;28;50056;-76
2023/04/09 05:25:41;;;;;;;;;57.50;43.75;;;;;;;;5051323;28;50881;-76
2023/04/09 05:28:07;;;;;;;;;46.75;42.75;;;;;;;;5050924;28;49722;-76
2023/04/09 05:30:32;;;;;;;;;49.00;41.00;;;;;;;;5033339;28;49751;-76
2023/04/09 05:32:57;;;;;;;;;44.25;38.50;;;;;;;;5053844;28;50127;-76
2023/04/09 05:35:22;;;;;;;;;49.00;41.50;;;;;;;;5059913;28;49715;-76
2023/04/09 05:37:47;;;;;;;;;51.00;41.25;;;;;;;;5051018;28;49829;-76
2023/04/09 05:40:13;;;;;;;;;49.25;41.75;;;;;;;;5051375;28;49904;-76
2023/04/09 05:42:38;;;;;;;;;51.50;43.00;;;;;;;;5064143;28;49754;-76
2023/04/09 05:45:04;;;;;;;;;59.25;44.00;;;;;;;;5052196;28;52160;-76
2023/04/09 05:47:29;;;;;;;;;50.00;42.00;;;;;;;;5065417;28;49815;-77
2023/04/09 05:49:54;;;;;;;;;49.75;41.75;;;;;;;;5071247;28;50013;-77
2023/04/09 05:52:20;;;;;;;;;47.75;42.00;;;;;;;;5071279;28;50235;-77
2023/04/09 05:54:45;;;;;;;;;52.75;44.50;;;;;;;;5070586;28;49983;-77
2023/04/09 05:57:11;;;;;;;;;53.00;42.75;;;;;;;;5070796;28;49772;-76
2023/04/09 05:59:36;;;;;;;;;50.00;43.75;;;;;;;;5071116;28;49850;-76
2023/04/09 06:02:01;;;;;;;;;56.25;41.50;;;;;;;;5071012;28;50033;-76
2023/04/09 06:04:26;;;;;;;;;47.25;41.50;;;;;;;;5070287;28;50529;-77
2023/04/09 06:06:51;;;;;;;;;50.75;42.25;;;;;;;;5069628;28;49984;-76
2023/04/09 06:09:16;;;;;;;;;52.25;44.50;;;;;;;;5070861;28;50171;-76
2023/04/09 06:11:42;;;;;;;;;45.75;38.50;;;;;;;;5071946;28;49725;-76
2023/04/09 06:14:07;;;;;;;;;48.25;42.50;;;;;;;;5073276;28;50635;-76
2023/04/09 06:16:32;;;;;;;;;52.50;41.50;;;;;;;;5070935;28;50056;-76
2023/04/09 06:18:57;;;;;;;;;60.50;47.75;;;;;;;;5070964;28;49710;-75
2023/04/09 06:21:22;;;;;;;;;57.25;44.75;;;;;;;;5070653;28;49839;-75
2023/04/09 06:23:48;;;;;;;;;50.75;42.50;;;;;;;;5071433;28;50294;-76
2023/04/09 06:26:13;;;;;;;;;47.75;41.75;;;;;;;;5070486;28;49710;-76
2023/04/09 06:28:38;;;;;;;;;50.00;40.75;;;;;;;;5071115;28;50265;-72
2023/04/09 06:31:03;;;;;;;;;47.50;39.25;;;;;;;;5071034;28;50492;-72
2023/04/09 06:33:28;;;;;;;;;50.00;42.25;;;;;;;;5070087;28;49887;-72
2023/04/09 06:35:54;;;;;;;;;60.75;49.00;;;;;;;;5070341;28;50095;-70
2023/04/09 06:38:19;;;;;;;;;57.00;45.75;;;;;;;;5070133;28;49723;-70
2023/04/09 06:40:45;;;;;;;;;59.00;49.75;;;;;;;;5070453;28;49959;-77
2023/04/09 06:45:46;;;;;;;;;60.25;49.00;;;;;;;;5214337;22;51745;-74
2023/04/09 06:48:11;;;;;;;;;58.75;48.50;;;;;;;;5045253;28;49840;-74
2023/04/09 06:50:36;;;;;;;;;58.25;45.25;;;;;;;;5049738;28;49927;-74
2023/04/09 06:53:01;;;;;;;;;54.00;45.00;;;;;;;;5049230;28;50931;-73
2023/04/09 06:55:27;;;;;;;;;57.75;48.25;;;;;;;;5049045;28;49747;-74
2023/04/09 06:57:52;;;;;;;;;47.00;42.50;;;;;;;;5049226;28;49794;-74
2023/04/09 07:00:17;;;;;;;;;56.50;46.75;;;;;;;;5049239;28;50041;-74
2023/04/09 07:02:43;;;;;;;;;49.50;39.50;;;;;;;;5048256;28;50030;-74
2023/04/09 07:05:08;;;;;;;;;61.25;49.00;;;;;;;;5048720;28;49974;-74
2023/04/09 07:07:33;;;;;;;;;61.00;48.00;;;;;;;;5048778;28;49693;-75
2023/04/09 07:09:58;;;;;;;;;61.50;47.00;;;;;;;;5047623;28;50019;-74
2023/04/09 07:12:27;;;;;;;;;57.75;46.00;;;;;;;;5048510;28;50778;-74
2023/04/09 07:14:56;;;;;;;;;52.50;45.25;;;;;;;;5048144;28;50062;-74
2023/04/09 07:17:21;;;;;;;;;50.25;40.75;;;;;;;;5048403;28;49984;-74
2023/04/09 07:19:46;;;;;;;;;54.25;45.00;;;;;;;;5048411;28;50053;-74
2023/04/09 07:22:11;;;;;;;;;60.25;49.25;;;;;;;;5047656;28;50029;-72
2023/04/09 07:24:36;;;;;;;;;56.25;46.25;;;;;;;;5048286;28;50140;-78
2023/04/09 07:27:05;;;;;;;;;56.50;45.25;;;;;;;;5049612;28;50037;-71
2023/04/09 07:29:30;;;;;;;;;59.75;49.75;;;;;;;;5034269;28;50006;-72
2023/04/09 07:31:55;;;;;;;;;39.50;35.25;;;;;;;;5048906;28;50163;-71
2023/04/09 07:34:20;;;;;;;;;58.50;48.75;;;;;;;;5049260;28;50013;-71
2023/04/09 07:36:45;;;;;;;;;56.75;47.00;;;;;;;;5049044;28;50155;-71
2023/04/09 07:39:11;;;;;;;;;58.50;45.00;;;;;;;;5049318;28;49725;-71
2023/04/09 07:41:36;;;;;;;;;53.00;44.50;;;;;;;;5048810;28;51096;-71
2023/04/09 07:44:02;;;;;;;;;49.25;40.75;;;;;;;;5048822;28;49833;-71
2023/04/09 07:46:27;;;;;;;;;54.25;46.50;;;;;;;;5043840;28;49856;-74
2023/04/09 07:48:52;;;;;;;;;57.25;48.25;;;;;;;;5048970;28;50093;-74
2023/04/09 07:51:18;;;;;;;;;59.00;46.50;;;;;;;;5048674;28;49854;-73
2023/04/09 07:53:43;;;;;;;;;54.25;45.75;;;;;;;;5031038;28;49990;-73
2023/04/09 07:56:08;;;;;;;;;48.50;39.25;;;;;;;;5048834;28;49786;-72
2023/04/09 07:58:34;;;;;;;;;53.75;43.25;;;;;;;;5049018;28;50178;-70
2023/04/09 08:00:59;;;;;;;;;53.25;42.50;;;;;;;;5047755;28;50829;-71
2023/04/09 08:03:24;;;;;;;;;58.75;49.00;;;;;;;;5045850;28;49974;-70
2023/04/09 08:05:50;;;;;;;;;50.75;41.25;;;;;;;;5048429;28;49745;-72
2023/04/09 08:08:15;;;;;;;;;42.50;38.25;;;;;;;;5049181;28;49929;-73
2023/04/09 08:10:40;;;;;;;;;53.50;43.25;;;;;;;;5042843;28;49951;-73
2023/04/09 08:13:05;;;;;;;;;63.75;48.50;;;;;;;;5048729;28;49768;-72
2023/04/09 08:15:31;;;;;;;;;53.25;43.25;;;;;;;;5047150;28;49744;-74
2023/04/09 08:17:57;;;;;;;;;56.50;42.75;;;;;;;;5053818;28;50005;-71
2023/04/09 08:20:22;;;;;;;;;61.75;47.25;;;;;;;;5048279;28;50880;-71
2023/04/09 08:22:47;;;;;;;;;61.50;46.75;;;;;;;;5045450;28;49977;-71
2023/04/09 08:25:12;;;;;;;;;56.75;46.00;;;;;;;;5041902;28;50150;-73
2023/04/09 08:27:38;;;;;;;;;50.25;42.50;;;;;;;;5045435;28;50014;-73
2023/04/09 08:30:04;;;;;;;;;55.50;46.25;;;;;;;;5048138;28;50868;-78
2023/04/09 08:32:29;;;;;;;;;56.00;42.75;;;;;;;;5022794;28;49774;-80
2023/04/09 08:34:54;;;;;;;;;57.75;46.00;;;;;;;;5048134;28;49970;-81
2023/04/09 08:37:20;;;;;;;;;54.75;45.25;;;;;;;;5040845;28;49999;-82
2023/04/09 08:39:45;;;;;;;;;58.50;49.00;;;;;;;;5046089;28;50592;-76
2023/04/09 08:42:11;;;;;;;;;58.75;47.25;;;;;;;;5042382;28;49749;-77
2023/04/09 08:44:37;;;;;;;;;57.00;47.00;;;;;;;;5041811;28;49870;-74
2023/04/09 08:47:08;;;;;;;;;54.75;43.25;;;;;;;;5045608;28;50667;-73
2023/04/09 08:49:34;;;;;;;;;58.00;47.00;;;;;;;;5047947;28;50962;-72
2023/04/09 08:51:59;;;;;;;;;59.25;47.25;;;;;;;;5045117;28;49752;-73
2023/04/09 08:54:25;;;;;;;;;56.75;46.00;;;;;;;;5048143;28;49854;-75
2023/04/09 08:56:50;;;;;;;;;51.50;42.25;;;;;;;;5045055;28;50178;-73
2023/04/09 08:59:17;;;;;;;;;57.25;44.50;;;;;;;;5024274;28;50458;-72
2023/04/09 09:01:43;;;;;;;;;48.00;42.00;;;;;;;;5044821;28;49809;-73
2023/04/09 09:04:08;;;;;;;;;60.25;47.00;;;;;;;;5047497;28;50194;-72
2023/04/09 09:06:34;;;;;;;;;61.00;49.25;;;;;;;;5038928;28;50402;-72
2023/04/09 09:09:03;;;;;;;;;57.50;45.75;;;;;;;;5037426;28;51336;-72
2023/04/09 09:11:29;;;;;;;;;58.00;46.75;;;;;;;;5040014;28;49813;-75
2023/04/09 09:14:01;;;;;;;;;48.25;40.50;;;;;;;;5021701;28;50080;-75
2023/04/09 09:16:26;;;;;;;;;57.75;43.00;;;;;;;;5041547;28;50148;-75
2023/04/09 09:18:52;;;;;;;;;56.25;46.50;;;;;;;;5041672;28;50167;-78
2023/04/09 09:21:18;;;;;;;;;52.25;42.25;;;;;;;;5021374;28;50181;-73
2023/04/09 09:23:44;;;;;;;;;55.00;43.50;;;;;;;;5020856;28;49868;-77
2023/04/09 09:26:29;;;;;;;;;58.75;47.25;;;;;;;;5042982;28;50166;-74
2023/04/09 09:28:55;;;;;;;;;56.25;45.25;;;;;;;;5043307;28;49961;-72
2023/04/09 09:31:21;;;;;;;;;52.25;41.25;;;;;;;;5045641;28;50330;-72
2023/04/09 09:33:47;;;;;;;;;59.50;48.25;;;;;;;;5020669;28;49995;-71
2023/04/09 09:36:12;;;;;;;;;55.00;43.00;;;;;;;;5028286;28;50020;-72
2023/04/09 09:38:55;;;;;;;;;53.50;45.00;;;;;;;;5052261;28;50250;-73
2023/04/09 09:41:20;;;;;;;;;54.50;41.50;;;;;;;;5047780;28;50191;-73
2023/04/09 09:43:46;;;;;;;;;52.50;39.50;;;;;;;;5050537;28;49840;-73
2023/04/09 09:46:11;;;;;;;;;56.25;43.50;;;;;;;;5050861;28;50031;-73
2023/04/09 09:48:37;;;;;;;;;55.25;45.50;;;;;;;;5050664;28;50875;-73
2023/04/09 09:51:05;;;;;;;;;50.50;39.25;;;;;;;;5050464;28;49742;-73
2023/04/09 09:53:31;;;;;;;;;42.50;37.75;;;;;;;;5050677;28;50033;-72
2023/04/09 09:55:58;;;;;;;;;41.50;36.75;;;;;;;;5033536;28;50035;-72
2023/04/09 09:58:26;;;;;;;;;53.50;42.75;;;;;;;;5050305;28;49907;-72
2023/04/09 10:00:52;;;;;;;;;48.75;40.25;;;;;;;;5050506;28;50091;-72
2023/04/09 10:03:22;;;;;;;;;42.00;36.50;;;;;;;;5049631;28;49832;-72
2023/04/09 10:05:48;;;;;;;;;40.25;34.25;;;;;;;;5050755;28;49994;-73
2023/04/09 10:08:13;;;;;;;;;37.50;36.00;;;;;;;;5050122;28;50996;-73
2023/04/09 10:10:41;;;;;;;;;26.25;24.00;;;;;;;;5050149;28;49760;-73
2023/04/09 10:13:09;;;;;;;;;23.75;23.25;;;;;;;;5050204;28;49609;-73
2023/04/09 10:15:34;;;;;;;;;24.75;21.50;;;;;;;;5050211;28;50080;-73
2023/04/09 10:18:00;;;;;;;;;39.25;31.25;;;;;;;;5050189;28;50202;-73
2023/04/09 10:20:31;;;;;;;;;29.75;27.00;;;;;;;;5031860;28;49793;-73
2023/04/09 10:22:59;;;;;;;;;23.00;20.75;;;;;;;;5050450;28;49909;-73
2023/04/09 10:25:25;;;;;;;;;16.50;13.75;;;;;;;;5050534;28;50014;-73
2023/04/09 10:28:00;;;;;;;;;21.25;16.75;;;;;;;;5048890;28;50199;-73
2023/04/09 10:30:32;;;;;;;;;13.25;12.25;;;;;;;;5047049;28;49864;-73
2023/04/09 10:33:08;;;;;;;;;13.00;10.75;;;;;;;;5050210;28;50183;-73
2023/04/09 10:35:33;;;;;;;;;11.00;10.25;;;;;;;;5047426;28;49914;-73
2023/04/09 10:37:59;;;;;;;;;19.00;15.25;;;;;;;;5031680;28;52428;-73
2023/04/09 10:40:26;;;;;;;;;14.25;13.25;;;;;;;;5049816;28;49788;-74
2023/04/09 10:42:53;;;;;;;;;13.50;11.00;;;;;;;;5049878;28;50097;-74
2023/04/09 10:45:19;;;;;;;;;18.00;14.00;;;;;;;;5032940;28;49643;-73
2023/04/09 10:47:48;;;;;;;;;15.75;11.75;;;;;;;;5048607;28;50677;-73
2023/04/09 10:50:15;;;;;;;;;13.25;12.75;;;;;;;;5049872;28;49760;-73
2023/04/09 10:52:41;;;;;;;;;11.50;9.25;;;;;;;;5049145;28;49919;-73
2023/04/09 10:55:06;;;;;;;;;11.25;9.75;;;;;;;;5049744;28;49747;-73
2023/04/09 10:57:31;;;;;;;;;7.75;7.50;;;;;;;;5049472;28;50785;-72
2023/04/09 10:59:57;;;;;;;;;14.00;13.50;;;;;;;;5049698;28;49745;-73
2023/04/09 11:02:28;;;;;;;;;12.50;11.50;;;;;;;;5049932;28;50041;-73
2023/04/09 11:04:56;;;;;;;;;13.50;13.00;;;;;;;;5049964;28;50018;-73
2023/04/09 11:07:22;;;;;;;;;10.50;7.00;;;;;;;;5030873;28;53045;-73
2023/04/09 11:09:47;;;;;;;;;8.00;7.50;;;;;;;;5049332;28;49833;-73
2023/04/09 11:12:13;;;;;;;;;14.00;12.50;;;;;;;;5049614;28;49998;-73
2023/04/09 11:14:38;;;;;;;;;16.00;16.00;;;;;;;;5049603;28;49994;-73
2023/04/09 11:17:03;;;;;;;;;14.00;13.50;;;;;;;;5049106;28;51651;-73
2023/04/09 11:19:28;;;;;;;;;13.50;9.50;;;;;;;;5031269;28;49762;-73
2023/04/09 11:21:54;;;;;;;;;16.00;15.25;;;;;;;;5049030;28;49951;-73
2023/04/09 11:24:20;;;;;;;;;12.25;10.00;;;;;;;;5049463;28;49769;-73
2023/04/09 11:26:47;;;;;;;;;10.75;9.00;;;;;;;;5049093;28;51870;-73
2023/04/09 11:29:12;;;;;;;;;15.00;11.75;;;;;;;;5049302;28;49749;-73
2023/04/09 11:31:37;;;;;;;;;8.00;8.00;;;;;;;;5048793;28;49788;-73
2023/04/09 11:34:02;;;;;;;;;13.00;10.75;;;;;;;;5049505;28;50478;-73
2023/04/09 11:36:28;;;;;;;;;8.75;8.75;;;;;;;;5047808;28;51107;-73
2023/04/09 11:38:56;;;;;;;;;12.75;10.50;;;;;;;;5047872;28;50083;-73
2023/04/09 11:41:34;;;;;;;;;8.50;8.25;;;;;;;;5048791;28;49990;-73
2023/04/09 11:44:09;;;;;;;;;12.25;10.75;;;;;;;;5049288;28;50185;-73
2023/04/09 11:46:35;;;;;;;;;19.00;16.75;;;;;;;;5048728;28;49869;-73
2023/04/09 11:49:01;;;;;;;;;15.75;14.75;;;;;;;;5043223;28;49724;-73
2023/04/09 11:51:27;;;;;;;;;17.00;15.50;;;;;;;;5048870;28;49967;-73
2023/04/09 11:53:52;;;;;;;;;13.00;11.00;;;;;;;;5035523;28;50199;-73
2023/04/09 11:56:18;;;;;;;;;9.25;9.25;;;;;;;;5048468;28;50695;-73
2023/04/09 11:58:46;;;;;;;;;16.25;14.50;;;;;;;;5048857;28;50076;-73
2023/04/09 12:01:12;;;;;;;;;13.50;12.50;;;;;;;;5044213;28;50041;-73
2023/04/09 12:03:37;;;;;;;;;19.50;14.75;;;;;;;;5047734;28;50059;-73
2023/04/09 12:06:03;;;;;;;;;13.25;12.75;;;;;;;;5028695;28;51144;-73
2023/04/09 12:08:30;;;;;;;;;17.75;15.25;;;;;;;;5048512;28;49888;-72
2023/04/09 12:10:55;;;;;;;;;17.75;16.75;;;;;;;;5030493;28;50050;-73
2023/04/09 12:13:20;;;;;;;;;17.00;16.25;;;;;;;;5048686;28;50066;-73
2023/04/09 12:15:47;;;;;;;;;11.50;10.50;;;;;;;;5029726;28;51439;-73
2023/04/09 12:18:12;;;;;;;;;21.00;18.50;;;;;;;;5048414;28;50073;-73
2023/04/09 12:20:39;;;;;;;;;17.00;15.75;;;;;;;;5048304;28;50048;-73
2023/04/09 12:23:05;;;;;;;;;12.25;11.25;;;;;;;;5048636;28;49788;-73
2023/04/09 12:25:31;;;;;;;;;17.00;16.25;;;;;;;;5048208;28;50643;-73
2023/04/09 12:27:57;;;;;;;;;19.50;17.25;;;;;;;;5046220;28;49826;-73
2023/04/09 12:30:22;;;;;;;;;19.25;18.00;;;;;;;;5048354;28;49986;-73
2023/04/09 12:32:48;;;;;;;;;16.75;13.50;;;;;;;;5047081;28;50163;-73
2023/04/09 12:35:13;;;;;;;;;18.25;16.75;;;;;;;;5048038;28;51823;-73
2023/04/09 12:37:39;;;;;;;;;12.25;12.25;;;;;;;;5048211;28;49684;-73
2023/04/09 12:40:05;;;;;;;;;17.50;14.75;;;;;;;;5048136;28;49722;-73
2023/04/09 12:42:30;;;;;;;;;11.25;9.75;;;;;;;;5029569;28;50124;-73
2023/04/09 12:44:55;;;;;;;;;20.50;17.00;;;;;;;;5047728;28;50869;-73
2023/04/09 12:47:21;;;;;;;;;17.00;17.00;;;;;;;;5048126;28;49855;-73
2023/04/09 12:49:46;;;;;;;;;15.25;15.25;;;;;;;;5048154;28;49629;-73
2023/04/09 12:52:11;;;;;;;;;16.25;13.00;;;;;;;;5047909;28;50025;-73
2023/04/09 12:54:38;;;;;;;;;18.00;16.00;;;;;;;;5047460;28;51531;-73
2023/04/09 12:57:04;;;;;;;;;13.25;12.50;;;;;;;;5029866;28;49956;-73
2023/04/09 12:59:29;;;;;;;;;13.75;13.00;;;;;;;;5048185;28;49744;-73
2023/04/09 13:01:54;;;;;;;;;19.00;16.00;;;;;;;;5047610;28;49681;-72
2023/04/09 13:04:19;;;;;;;;;19.50;18.25;;;;;;;;5030831;28;51462;-73
2023/04/09 13:06:45;;;;;;;;;19.00;17.50;;;;;;;;5047479;28;49867;-73
2023/04/09 13:09:10;;;;;;;;;14.25;13.75;;;;;;;;5030060;28;50006;-73
2023/04/09 13:11:35;;;;;;;;;11.00;11.00;;;;;;;;5047987;28;49767;-73
2023/04/09 13:14:01;;;;;;;;;17.00;14.50;;;;;;;;5047448;28;49816;-72
2023/04/09 13:16:26;;;;;;;;;15.25;15.25;;;;;;;;5048710;28;49889;-72
2023/04/09 13:18:51;;;;;;;;;17.25;15.00;;;;;;;;5051283;28;49662;-73
2023/04/09 13:21:17;;;;;;;;;14.50;12.00;;;;;;;;5033028;28;50104;-73
2023/04/09 13:23:43;;;;;;;;;19.00;17.00;;;;;;;;5050819;28;50824;-73
2023/04/09 13:26:08;;;;;;;;;14.75;13.75;;;;;;;;5051193;28;49873;-73
2023/04/09 13:28:33;;;;;;;;;15.25;13.00;;;;;;;;5051244;28;49840;-73
2023/04/09 13:30:58;;;;;;;;;14.50;14.00;;;;;;;;5051229;28;50010;-73
2023/04/09 13:33:23;;;;;;;;;15.50;12.25;;;;;;;;5050337;28;50590;-74
2023/04/09 13:35:50;;;;;;;;;14.50;14.50;;;;;;;;5048187;28;49745;-73
2023/04/09 13:38:15;;;;;;;;;17.25;16.00;;;;;;;;5026058;28;49886;-73
2023/04/09 13:40:40;;;;;;;;;14.50;13.50;;;;;;;;5050987;28;49959;-73
2023/04/09 13:43:05;;;;;;;;;14.00;13.00;;;;;;;;5032022;28;51033;-73
2023/04/09 13:45:30;;;;;;;;;12.25;12.25;;;;;;;;5050462;28;49642;-73
2023/04/09 13:47:56;;;;;;;;;12.75;12.75;;;;;;;;5050333;28;49750;-72
2023/04/09 13:50:21;;;;;;;;;11.00;9.75;;;;;;;;5051155;28;49884;-73
2023/04/09 13:52:46;;;;;;;;;14.00;13.50;;;;;;;;5050649;28;50023;-74
2023/04/09 13:55:12;;;;;;;;;16.00;14.75;;;;;;;;5050671;28;49681;-73
2023/04/09 13:57:37;;;;;;;;;16.50;15.25;;;;;;;;5050641;28;49762;-73
2023/04/09 14:00:04;;;;;;;;;14.75;13.50;;;;;;;;5050705;28;50043;-73
2023/04/09 14:02:29;;;;;;;;;13.00;12.25;;;;;;;;5050222;28;50227;-73
2023/04/09 14:04:55;;;;;;;;;15.50;10.75;;;;;;;;5050494;28;50169;-73
2023/04/09 14:07:20;;;;;;;;;12.50;12.50;;;;;;;;5050473;28;49896;-73
2023/04/09 14:09:46;;;;;;;;;14.25;14.25;;;;;;;;5050702;28;50016;-73
2023/04/09 14:12:11;;;;;;;;;13.50;13.50;;;;;;;;5050264;28;49949;-73
2023/04/09 14:14:36;;;;;;;;;11.00;11.00;;;;;;;;5050312;28;50265;-73